Time;durP1;ratioP1;P1;durP2;ratioP2;P2;SDS_P1;SDS_P2;PMS_P1;PMS_P2;Temp;Humidity;BMP_temperature;BMP_pressure;BME280_temperature;BME280_humidity;BME280_pressure;Samples;Min_cycle;Max_cycle;Signal;HPM_P1;HPM_P2
2021/08/16 00:00:00;;;;;;;10.10;7.15;;;;;;;19.84;58.26;95202.22;5113493;27;20059;-68
2021/08/16 00:02:26;;;;;;;12.18;6.68;;;;;;;19.73;58.23;95192.78;5105340;28;20051;-69
2021/08/16 00:04:54;;;;;;;9.77;7.13;;;;;;;19.67;58.92;95182.25;5104886;28;20039;-69
2021/08/16 00:07:20;;;;;;;8.55;7.25;;;;;;;19.77;58.82;95180.63;5106057;28;20043;-68
2021/08/16 00:09:47;;;;;;;9.23;6.53;;;;;;;19.70;58.46;95183.56;5105945;28;20049;-68
2021/08/16 00:12:14;;;;;;;7.07;6.18;;;;;;;19.75;58.21;95188.03;5107528;27;20076;-68
2021/08/16 00:14:41;;;;;;;12.95;6.80;;;;;;;19.72;58.91;95178.78;5113018;27;20035;-68
2021/08/16 00:17:08;;;;;;;8.98;6.15;;;;;;;19.72;58.14;95178.00;5112299;27;20060;-68
2021/08/16 00:19:35;;;;;;;9.57;6.63;;;;;;;19.74;58.69;95170.63;5113101;27;20039;-68
2021/08/16 00:22:02;;;;;;;7.05;6.32;;;;;;;19.71;58.60;95171.16;5111717;27;20035;-68
2021/08/16 00:24:29;;;;;;;10.40;6.10;;;;;;;19.71;59.15;95171.16;5106470;28;20035;-68
2021/08/16 00:26:55;;;;;;;10.55;6.35;;;;;;;19.66;58.91;95170.13;5111065;27;20035;-69
2021/08/16 00:29:22;;;;;;;12.32;6.85;;;;;;;19.66;58.55;95170.13;5112712;27;20054;-68
2021/08/16 00:31:49;;;;;;;8.18;6.65;;;;;;;19.56;59.07;95170.22;5112711;27;20060;-69
2021/08/16 00:34:16;;;;;;;7.20;6.38;;;;;;;19.56;59.12;95175.50;5111928;27;20043;-69
2021/08/16 00:36:43;;;;;;;23.13;9.68;;;;;;;19.56;59.02;95175.50;5108355;27;20059;-69
2021/08/16 00:39:10;;;;;;;7.72;6.25;;;;;;;19.63;59.18;95180.47;5111168;28;20051;-68
2021/08/16 00:41:38;;;;;;;9.57;6.50;;;;;;;19.57;60.18;95177.09;5111407;27;20047;-69
2021/08/16 00:44:08;;;;;;;10.02;6.72;;;;;;;19.56;59.56;95174.72;5103662;28;20040;-68
2021/08/16 00:46:35;;;;;;;6.95;6.22;;;;;;;19.49;60.05;95181.13;5107937;28;20043;-68
2021/08/16 00:49:02;;;;;;;9.40;7.05;;;;;;;19.38;61.05;95179.63;5112148;28;20108;-68
2021/08/16 00:51:31;;;;;;;9.30;7.32;;;;;;;19.22;61.10;95171.06;5110614;28;20046;-68
2021/08/16 00:54:00;;;;;;;10.85;7.38;;;;;;;19.25;60.91;95175.78;5106941;28;20036;-68
2021/08/16 00:56:27;;;;;;;9.82;7.15;;;;;;;19.26;60.86;95177.34;5112695;28;20048;-68
2021/08/16 00:59:00;;;;;;;10.68;7.45;;;;;;;19.27;60.56;95178.94;5112889;28;20051;-68
2021/08/16 01:01:27;;;;;;;8.32;7.35;;;;;;;19.23;61.23;95177.94;5105567;28;20044;-68
2021/08/16 01:03:54;;;;;;;9.25;7.55;;;;;;;19.13;62.35;95175.34;5106687;28;20118;-68
2021/08/16 01:06:21;;;;;;;8.20;7.03;;;;;;;19.05;62.06;95170.66;5093406;28;20044;-68
2021/08/16 01:08:49;;;;;;;11.55;7.13;;;;;;;19.02;62.06;95176.50;5111130;28;20087;-68
2021/08/16 01:11:18;;;;;;;10.43;7.65;;;;;;;18.93;62.68;95167.59;5110289;28;20059;-68
2021/08/16 01:13:47;;;;;;;8.88;7.78;;;;;;;18.75;63.57;95167.16;5114141;28;20051;-68
2021/08/16 01:16:18;;;;;;;9.60;7.72;;;;;;;18.58;64.71;95166.72;5111672;28;20497;-68
2021/08/16 01:18:46;;;;;;;9.65;7.25;;;;;;;18.19;66.59;95175.38;5112853;28;20043;-68
2021/08/16 01:21:15;;;;;;;12.02;7.40;;;;;;;17.96;67.13;95177.56;5106818;28;20054;-69
2021/08/16 01:23:43;;;;;;;8.63;7.43;;;;;;;17.95;67.40;95173.34;5103941;28;20485;-68
2021/08/16 01:26:11;;;;;;;9.13;6.82;;;;;;;17.93;67.13;95163.09;5105499;28;20108;-68
2021/08/16 01:28:39;;;;;;;9.05;7.32;;;;;;;17.93;67.39;95164.91;5111977;28;20054;-69
2021/08/16 01:31:07;;;;;;;8.18;6.95;;;;;;;17.91;66.81;95164.41;5112282;28;20039;-69
2021/08/16 01:33:36;;;;;;;10.63;7.03;;;;;;;17.95;66.76;95165.44;5112810;28;20123;-68
2021/08/16 01:36:03;;;;;;;11.38;7.32;;;;;;;18.02;66.02;95165.16;5103572;28;20574;-68
2021/08/16 01:38:35;;;;;;;9.85;7.00;;;;;;;17.97;65.85;95158.06;5105082;28;20046;-69
2021/08/16 01:41:03;;;;;;;9.43;7.00;;;;;;;17.95;65.75;95165.44;5112399;28;20420;-69
2021/08/16 01:43:29;;;;;;;11.23;7.53;;;;;;;17.89;66.41;95162.03;5107660;28;20044;-68
2021/08/16 01:45:56;;;;;;;9.35;7.60;;;;;;;17.98;65.52;95153.56;5105183;28;20053;-69
2021/08/16 01:48:23;;;;;;;12.13;8.90;;;;;;;18.11;64.99;95153.78;5104017;28;20056;-68
2021/08/16 01:50:50;;;;;;;11.82;7.82;;;;;;;18.16;65.19;95155.59;5103540;28;20055;-68
2021/08/16 01:53:17;;;;;;;9.52;7.07;;;;;;;18.18;64.49;95157.97;5104076;28;20047;-68
2021/08/16 01:56:51;;;;;;;10.75;6.75;;;;;;;18.06;65.11;95156.44;5096029;27;20467;-70
2021/08/16 01:59:17;;;;;;;9.68;6.80;;;;;;;18.01;64.75;95151.19;5102912;28;20046;-70
2021/08/16 02:01:44;;;;;;;10.63;7.13;;;;;;;18.12;65.00;95160.63;5103124;28;20052;-69
2021/08/16 02:04:11;;;;;;;8.68;6.53;;;;;;;18.24;64.45;95162.97;5107596;28;20382;-70
2021/08/16 02:06:38;;;;;;;13.35;7.65;;;;;;;18.22;64.09;95159.81;5102856;28;20512;-70
2021/08/16 02:09:05;;;;;;;7.18;6.28;;;;;;;18.12;64.75;95165.91;5090952;28;20513;-70
2021/08/16 02:11:32;;;;;;;8.38;6.80;;;;;;;18.13;64.20;95156.94;5105957;28;20086;-70
2021/08/16 02:13:58;;;;;;;9.07;6.82;;;;;;;18.17;64.17;95153.75;5102072;28;20048;-69
2021/08/16 02:16:25;;;;;;;8.73;6.93;;;;;;;18.21;63.63;95147.69;5101872;28;20044;-70
2021/08/16 02:18:52;;;;;;;9.75;6.75;;;;;;;18.18;64.08;95157.97;5101708;28;20039;-69
2021/08/16 02:21:19;;;;;;;11.93;8.35;;;;;;;18.12;63.63;95159.84;5105805;28;20062;-69
2021/08/16 02:23:46;;;;;;;11.73;6.75;;;;;;;18.07;64.56;95155.38;5110545;28;20450;-70
2021/08/16 02:26:12;;;;;;;9.55;6.80;;;;;;;18.12;64.09;95165.13;5102364;28;20477;-69
2021/08/16 02:28:39;;;;;;;10.07;6.40;;;;;;;18.15;63.25;95154.81;5102598;28;20052;-70
2021/08/16 02:31:06;;;;;;;7.00;6.20;;;;;;;18.20;62.95;95153.22;5103000;28;20040;-69
2021/08/16 02:33:33;;;;;;;8.55;6.85;;;;;;;18.14;63.60;95153.22;5102506;28;20046;-69
2021/08/16 02:36:00;;;;;;;9.82;6.57;;;;;;;18.09;63.65;95161.16;5102466;28;20035;-69
2021/08/16 02:38:26;;;;;;;8.65;6.50;;;;;;;18.11;62.64;95159.06;5111535;28;20058;-69
2021/08/16 02:40:53;;;;;;;8.48;6.10;;;;;;;18.07;63.00;95158.00;5112012;28;20510;-69
2021/08/16 02:43:20;;;;;;;10.27;6.63;;;;;;;17.92;64.13;95158.06;5113804;28;20076;-69
2021/08/16 02:45:47;;;;;;;9.35;6.13;;;;;;;17.89;64.07;95161.25;5113308;28;20043;-69
2021/08/16 02:48:14;;;;;;;7.40;5.93;;;;;;;17.72;64.06;95167.59;5112426;28;20048;-69
2021/08/16 02:50:40;;;;;;;9.52;7.22;;;;;;;17.49;64.77;95158.41;5114147;28;20047;-69
2021/08/16 02:53:07;;;;;;;9.80;6.15;;;;;;;17.60;64.11;95164.44;5102572;28;20097;-69
2021/08/16 02:55:34;;;;;;;10.95;6.38;;;;;;;17.63;64.44;95153.38;5099893;28;20113;-69
2021/08/16 02:58:01;;;;;;;9.88;6.28;;;;;;;17.65;64.00;95156.53;5103689;28;20413;-69
2021/08/16 03:00:27;;;;;;;8.25;5.72;;;;;;;17.70;63.62;95158.34;5111106;28;20044;-69
2021/08/16 03:02:54;;;;;;;8.27;5.88;;;;;;;17.69;63.78;95162.84;5112542;28;20052;-70
2021/08/16 03:05:21;;;;;;;14.55;6.03;;;;;;;17.74;63.44;95160.19;5106668;27;20043;-69
2021/08/16 03:07:49;;;;;;;6.65;5.93;;;;;;;17.70;63.93;95164.44;5090817;28;20043;-69
2021/08/16 03:10:17;;;;;;;7.63;5.88;;;;;;;17.72;62.87;95161.53;5088060;28;20040;-69
2021/08/16 03:12:44;;;;;;;7.75;6.13;;;;;;;17.69;63.45;95157.56;5095736;28;20043;-69
2021/08/16 03:15:11;;;;;;;11.75;6.15;;;;;;;17.55;64.16;95156.56;5096329;28;20105;-69
2021/08/16 03:17:38;;;;;;;9.07;5.95;;;;;;;17.45;63.89;95156.56;5098041;28;20036;-69
2021/08/16 03:20:07;;;;;;;7.85;5.60;;;;;;;17.33;63.58;95160.28;5093118;28;20048;-69
2021/08/16 03:22:34;;;;;;;9.45;5.68;;;;;;;17.18;64.30;95141.88;5073374;28;20044;-69
2021/08/16 03:25:01;;;;;;;9.82;5.82;;;;;;;17.21;63.80;95149.22;5085806;28;20055;-69
2021/08/16 03:27:28;;;;;;;6.68;5.20;;;;;;;17.18;63.39;95152.41;5085781;28;20044;-70
2021/08/16 03:29:54;;;;;;;7.32;4.35;;;;;;;17.14;63.21;95156.59;5088898;28;20043;-69
2021/08/16 03:32:21;;;;;;;9.63;5.75;;;;;;;17.11;62.59;95151.88;5095124;28;20441;-69
2021/08/16 03:34:48;;;;;;;10.18;4.63;;;;;;;17.06;63.38;95154.50;5099860;28;20047;-69
2021/08/16 03:37:15;;;;;;;12.52;5.88;;;;;;;17.07;63.41;95156.06;5097779;28;20051;-69
2021/08/16 03:39:42;;;;;;;11.43;5.55;;;;;;;17.07;62.85;95158.69;5080651;28;20043;-69
2021/08/16 03:42:09;;;;;;;7.10;5.15;;;;;;;17.12;62.30;95158.69;5097355;28;20036;-69
2021/08/16 03:44:36;;;;;;;7.40;4.93;;;;;;;17.05;62.17;95158.19;5097369;28;20044;-69
2021/08/16 03:47:03;;;;;;;7.63;5.25;;;;;;;17.03;62.65;95160.28;5098164;28;20043;-69
2021/08/16 03:49:30;;;;;;;7.50;5.22;;;;;;;17.06;63.42;95165.03;5098787;28;20055;-69
2021/08/16 03:51:56;;;;;;;6.72;4.25;;;;;;;17.03;62.75;95170.81;5091562;28;20487;-69
2021/08/16 03:54:23;;;;;;;11.32;5.38;;;;;;;17.07;62.33;95167.41;5088029;28;20048;-69
2021/08/16 03:56:50;;;;;;;6.68;4.65;;;;;;;16.99;63.05;95160.03;5085196;28;20074;-69
2021/08/16 03:59:17;;;;;;;9.60;4.75;;;;;;;16.95;63.60;95158.97;5085230;28;20055;-69
2021/08/16 04:01:44;;;;;;;7.68;4.78;;;;;;;16.93;64.07;95172.38;5087237;28;20455;-69
2021/08/16 04:04:11;;;;;;;9.00;4.78;;;;;;;16.92;64.17;95162.91;5085934;28;20059;-69
2021/08/16 04:06:37;;;;;;;10.70;4.38;;;;;;;16.95;63.30;95170.28;5091632;28;20040;-69
2021/08/16 04:09:04;;;;;;;8.35;4.90;;;;;;;17.00;63.27;95161.63;5094308;28;20039;-69
2021/08/16 04:11:31;;;;;;;7.97;4.72;;;;;;;17.09;62.97;95164.53;5086563;28;20047;-69
2021/08/16 04:13:58;;;;;;;6.97;4.82;;;;;;;17.16;62.39;95170.28;5086288;28;20077;-69
2021/08/16 04:16:25;;;;;;;13.77;5.18;;;;;;;17.22;63.34;95169.25;5086714;28;20513;-69
2021/08/16 04:18:51;;;;;;;11.07;4.95;;;;;;;17.18;64.05;95168.97;5086109;28;20138;-69
2021/08/16 04:21:18;;;;;;;8.32;5.50;;;;;;;17.19;64.30;95172.38;5086642;28;20397;-69
2021/08/16 04:23:45;;;;;;;10.35;4.72;;;;;;;17.24;63.26;95172.38;5089845;28;20039;-69
2021/08/16 04:26:12;;;;;;;10.05;4.85;;;;;;;17.39;62.41;95180.28;5089675;28;20044;-69
2021/08/16 04:28:39;;;;;;;11.57;5.00;;;;;;;17.51;62.10;95174.72;5086331;28;20040;-68
2021/08/16 04:31:06;;;;;;;8.95;4.88;;;;;;;17.66;61.50;95168.63;5086346;28;20054;-69
2021/08/16 04:33:33;;;;;;;9.50;4.45;;;;;;;17.81;60.53;95169.66;5086548;28;20059;-69
2021/08/16 04:36:00;;;;;;;11.48;5.10;;;;;;;17.76;60.88;95158.09;5088360;28;20040;-69
2021/08/16 04:38:27;;;;;;;10.75;4.63;;;;;;;17.98;60.37;95164.13;5092845;28;20085;-69
2021/08/16 04:40:54;;;;;;;14.15;6.20;;;;;;;18.07;61.34;95163.28;5092305;28;20055;-69
2021/08/16 04:43:22;;;;;;;16.23;5.18;;;;;;;18.05;62.59;95170.66;5095799;28;20040;-72
2021/08/16 04:45:49;;;;;;;23.75;7.63;;;;;;;18.08;63.86;95183.31;5092188;28;20051;-69
2021/08/16 04:48:16;;;;;;;37.75;9.13;;;;;;;18.07;65.48;95178.31;5092048;28;20509;-69
2021/08/16 04:50:43;;;;;;;51.05;10.32;;;;;;;17.98;66.80;95185.97;5094947;28;20524;-69
2021/08/16 04:53:10;;;;;;;67.57;11.13;;;;;;;17.83;68.21;95186.00;5093640;28;20052;-69
2021/08/16 04:55:37;;;;;;;67.07;10.82;;;;;;;17.75;68.23;95177.59;5092958;28;20490;-68
2021/08/16 04:58:04;;;;;;;46.25;11.68;;;;;;;17.72;68.11;95178.13;5085061;28;20043;-69
2021/08/16 05:00:31;;;;;;;53.70;12.65;;;;;;;17.66;69.00;95173.13;5085810;28;20052;-70
2021/08/16 05:02:59;;;;;;;45.85;12.20;;;;;;;17.69;69.17;95173.38;5073714;28;20067;-69
2021/08/16 05:05:29;;;;;;;31.50;11.60;;;;;;;17.78;69.31;95177.03;5091713;28;20063;-70
2021/08/16 05:07:58;;;;;;;49.25;12.73;;;;;;;17.87;69.92;95179.16;5091533;28;20109;-70
2021/08/16 05:10:27;;;;;;;60.88;11.45;;;;;;;18.00;69.18;95189.13;5092430;28;20044;-69
2021/08/16 05:12:55;;;;;;;42.92;9.63;;;;;;;18.06;69.08;95203.88;5089894;28;20097;-69
2021/08/16 05:15:23;;;;;;;28.45;9.57;;;;;;;18.06;69.37;95188.06;5091893;28;20426;-69
2021/08/16 05:17:50;;;;;;;27.67;9.45;;;;;;;18.14;68.22;95195.41;5086674;28;20040;-69
2021/08/16 05:20:19;;;;;;;20.48;8.18;;;;;;;18.13;67.54;95193.84;5107047;27;20032;-70
2021/08/16 05:22:47;;;;;;;29.15;9.80;;;;;;;18.12;66.96;95202.00;5088746;28;20434;-69
2021/08/16 05:25:16;;;;;;;21.00;7.78;;;;;;;18.15;66.94;95202.28;5095708;28;20509;-69
2021/08/16 05:27:43;;;;;;;20.98;8.52;;;;;;;18.11;66.57;95201.25;5091463;28;20040;-69
2021/08/16 05:30:10;;;;;;;21.42;7.93;;;;;;;18.21;66.64;95199.63;5093376;28;20054;-70
2021/08/16 05:32:37;;;;;;;29.52;9.52;;;;;;;18.29;66.16;95191.94;5094969;28;20036;-69
2021/08/16 05:35:06;;;;;;;31.83;8.65;;;;;;;18.37;66.04;95185.31;5091308;28;20067;-69
2021/08/16 05:37:33;;;;;;;21.75;8.18;;;;;;;18.52;65.69;95194.97;5092021;28;20040;-69
2021/08/16 05:39:59;;;;;;;22.33;9.00;;;;;;;18.64;65.29;95192.03;5092818;28;20051;-70
2021/08/16 05:42:26;;;;;;;18.95;8.52;;;;;;;18.74;65.35;95197.22;5091365;28;20130;-70
2021/08/16 05:44:53;;;;;;;21.27;7.97;;;;;;;18.81;64.23;95192.47;5092966;28;20048;-69
2021/08/16 05:47:20;;;;;;;18.50;7.68;;;;;;;18.94;63.56;95191.06;5094581;28;20050;-69
2021/08/16 05:49:46;;;;;;;14.15;7.63;;;;;;;19.05;63.25;95197.06;5091419;28;20052;-69
2021/08/16 05:52:13;;;;;;;14.13;6.75;;;;;;;19.10;62.90;95194.38;5085630;28;20110;-69
2021/08/16 05:54:40;;;;;;;14.23;8.23;;;;;;;19.22;61.51;95192.19;5084698;28;20047;-69
2021/08/16 05:57:07;;;;;;;18.60;8.43;;;;;;;19.38;60.14;95200.00;5085928;28;20417;-69
2021/08/16 05:59:33;;;;;;;22.88;7.72;;;;;;;19.48;59.98;95194.59;5084355;28;20051;-69
2021/08/16 06:02:00;;;;;;;17.30;7.35;;;;;;;19.57;60.47;95192.94;5084473;28;20750;-67
2021/08/16 06:04:27;;;;;;;13.18;7.40;;;;;;;19.60;60.08;95192.38;5084538;28;20043;-67
2021/08/16 06:06:54;;;;;;;14.70;7.47;;;;;;;19.77;60.15;95186.72;5083851;28;20033;-67
2021/08/16 06:09:21;;;;;;;12.52;6.82;;;;;;;19.93;59.18;95189.94;5083482;28;20127;-67
2021/08/16 06:11:48;;;;;;;14.20;6.60;;;;;;;20.05;58.00;95193.00;5084503;28;20054;-68
2021/08/16 06:14:14;;;;;;;14.25;6.68;;;;;;;20.20;58.35;95189.41;5084694;28;20031;-67
2021/08/16 06:16:41;;;;;;;13.05;7.25;;;;;;;20.38;57.37;95192.34;5084468;28;20435;-68
2021/08/16 06:19:08;;;;;;;8.82;6.18;;;;;;;20.50;56.64;95194.59;5087634;28;20409;-68
2021/08/16 06:21:40;;;;;;;12.60;6.13;;;;;;;20.64;57.05;95194.72;5084978;28;20598;-68
2021/08/16 06:24:06;;;;;;;12.35;6.60;;;;;;;20.78;55.98;95196.34;5085178;28;20040;-68
2021/08/16 06:26:33;;;;;;;14.70;6.28;;;;;;;20.98;54.99;95197.13;5084815;28;20051;-69
2021/08/16 06:29:00;;;;;;;16.42;6.30;;;;;;;21.08;56.64;95201.47;5084282;28;20820;-67
2021/08/16 06:31:27;;;;;;;9.98;6.22;;;;;;;21.24;53.85;95194.09;5085132;28;20043;-67
2021/08/16 06:33:55;;;;;;;15.18;6.32;;;;;;;21.38;53.54;95195.69;5083360;28;20055;-67
2021/08/16 06:36:21;;;;;;;20.77;6.47;;;;;;;21.54;52.80;95198.13;5087412;28;20040;-67
2021/08/16 06:38:49;;;;;;;13.63;5.72;;;;;;;21.71;51.62;95192.25;5084811;28;20115;-67
2021/08/16 06:41:17;;;;;;;9.18;5.60;;;;;;;21.84;51.26;95196.81;5085694;28;20044;-67
2021/08/16 06:43:47;;;;;;;13.95;5.97;;;;;;;22.03;51.76;95198.59;5067354;28;20052;-67
2021/08/16 06:46:15;;;;;;;9.25;5.72;;;;;;;22.09;51.19;95192.09;5087432;28;20062;-67
2021/08/16 06:48:43;;;;;;;10.73;5.53;;;;;;;22.18;50.85;95190.31;5089103;28;20046;-67
2021/08/16 06:51:09;;;;;;;9.38;4.82;;;;;;;22.33;50.10;95192.72;5087813;28;20045;-68
2021/08/16 06:53:37;;;;;;;11.23;5.20;;;;;;;22.55;48.68;95187.78;5087129;28;20052;-67
2021/08/16 06:56:04;;;;;;;6.68;4.38;;;;;;;22.71;48.11;95195.09;5092550;28;20036;-67
2021/08/16 06:58:32;;;;;;;7.93;5.00;;;;;;;22.76;47.97;95188.91;5086412;28;20048;-67
2021/08/16 07:01:00;;;;;;;7.57;5.18;;;;;;;22.95;47.43;95186.06;5087413;28;20044;-67
2021/08/16 07:03:30;;;;;;;7.03;4.88;;;;;;;23.11;47.53;95199.06;5090540;28;20040;-67
2021/08/16 07:05:57;;;;;;;11.77;4.70;;;;;;;23.19;46.31;95201.78;5087089;28;20048;-69
2021/08/16 07:08:24;;;;;;;13.13;4.78;;;;;;;23.31;47.04;95193.25;5090104;28;20032;-71
2021/08/16 07:10:51;;;;;;;6.10;4.85;;;;;;;23.42;45.98;95189.25;5087527;28;20063;-72
2021/08/16 07:13:18;;;;;;;8.90;5.30;;;;;;;23.59;45.97;95193.88;5086838;28;20113;-71
2021/08/16 07:15:44;;;;;;;7.95;4.70;;;;;;;23.69;45.12;95200.03;5087655;28;20044;-68
2021/08/16 07:18:11;;;;;;;11.50;4.35;;;;;;;23.74;44.21;95195.38;5087927;28;20549;-69
2021/08/16 07:20:38;;;;;;;9.93;4.63;;;;;;;23.77;44.45;95189.44;5086917;28;20036;-68
2021/08/16 07:23:05;;;;;;;9.07;4.68;;;;;;;23.97;44.01;95208.66;5086646;28;20047;-68
2021/08/16 07:25:32;;;;;;;9.77;5.10;;;;;;;24.08;44.81;95201.19;5089557;28;20046;-68
2021/08/16 07:27:58;;;;;;;5.35;4.18;;;;;;;24.17;43.93;95196.66;5091980;28;20059;-68
2021/08/16 07:30:25;;;;;;;5.38;4.35;;;;;;;24.26;44.00;95204.69;5086943;28;20502;-67
2021/08/16 07:32:52;;;;;;;7.78;4.65;;;;;;;24.53;45.51;95204.47;5086547;28;20484;-68
2021/08/16 07:35:20;;;;;;;8.13;4.65;;;;;;;24.62;44.58;95201.81;5085741;28;20048;-69
2021/08/16 07:37:47;;;;;;;8.77;4.32;;;;;;;24.74;44.19;95195.84;5085409;28;20048;-68
2021/08/16 07:40:15;;;;;;;7.13;4.68;;;;;;;24.93;44.48;95195.56;5087365;28;20398;-68
2021/08/16 07:42:41;;;;;;;7.03;4.53;;;;;;;25.08;43.26;95196.97;5086948;28;20421;-69
2021/08/16 07:45:09;;;;;;;10.10;4.28;;;;;;;25.25;43.56;95191.66;5078510;28;20089;-68
2021/08/16 07:47:36;;;;;;;5.10;4.43;;;;;;;25.40;42.40;95194.94;5084432;28;20540;-69
2021/08/16 07:50:06;;;;;;;10.90;4.60;;;;;;;25.51;42.11;95188.16;5085324;28;20056;-68
2021/08/16 07:52:38;;;;;;;6.72;5.03;;;;;;;25.69;43.09;95189.69;5083777;28;20572;-68
2021/08/16 07:55:07;;;;;;;5.57;3.33;;;;;;;25.89;40.71;95187.41;5083804;28;20094;-68
2021/08/16 07:57:34;;;;;;;7.35;4.88;;;;;;;26.02;41.18;95186.47;5083300;28;20029;-68
2021/08/16 08:00:03;;;;;;;8.15;5.00;;;;;;;26.17;41.10;95171.78;5084374;28;20066;-68
2021/08/16 08:02:48;;;;;;;7.18;5.05;;;;;;;26.43;39.80;95184.97;5085921;28;20055;-68
2021/08/16 08:05:17;;;;;;;9.60;4.97;;;;;;;26.61;39.13;95174.22;5086728;28;20088;-68
2021/08/16 08:07:45;;;;;;;7.75;4.72;;;;;;;26.69;38.54;95176.84;5087841;28;20040;-68
2021/08/16 08:10:14;;;;;;;9.70;4.55;;;;;;;26.82;38.80;95180.38;5088705;28;20054;-69
2021/08/16 08:12:43;;;;;;;7.85;4.70;;;;;;;26.95;40.63;95177.75;5086277;28;20043;-69
2021/08/16 08:15:11;;;;;;;5.15;4.43;;;;;;;27.04;40.23;95181.13;5087319;28;20056;-68
2021/08/16 08:17:37;;;;;;;5.93;4.25;;;;;;;27.27;37.96;95168.22;5088048;28;20032;-69
2021/08/16 08:20:06;;;;;;;5.97;4.25;;;;;;;27.41;37.52;95178.63;5086419;28;20044;-69
2021/08/16 08:22:34;;;;;;;5.47;3.90;;;;;;;27.57;38.95;95171.53;5087390;28;20055;-69
2021/08/16 08:25:02;;;;;;;6.68;4.38;;;;;;;27.80;37.40;95173.81;5088369;28;20048;-70
2021/08/16 08:27:28;;;;;;;7.30;4.80;;;;;;;27.96;35.38;95174.72;5086216;28;20047;-70
2021/08/16 08:29:55;;;;;;;7.68;5.63;;;;;;;28.01;35.69;95163.81;5085816;28;20032;-70
2021/08/16 08:32:22;;;;;;;7.57;4.45;;;;;;;28.24;35.91;95171.41;5084888;28;20044;-70
2021/08/16 08:34:49;;;;;;;9.60;4.75;;;;;;;28.42;35.38;95167.38;5086249;28;20048;-71
2021/08/16 08:37:16;;;;;;;9.48;5.05;;;;;;;28.45;34.81;95163.25;5084708;28;20058;-70
2021/08/16 08:39:45;;;;;;;7.05;4.47;;;;;;;28.56;35.88;95166.28;5085020;28;20040;-71
2021/08/16 08:42:14;;;;;;;13.23;4.50;;;;;;;28.68;36.84;95163.53;5085140;28;20046;-70
2021/08/16 08:44:42;;;;;;;8.93;4.72;;;;;;;28.85;34.08;95156.38;5086566;28;20048;-71
2021/08/16 08:47:12;;;;;;;7.85;4.45;;;;;;;29.21;33.15;95154.69;5090672;28;20059;-71
2021/08/16 08:49:40;;;;;;;4.93;4.38;;;;;;;29.44;31.81;95149.53;5085565;28;20043;-71
2021/08/16 08:52:07;;;;;;;10.20;5.13;;;;;;;29.44;33.16;95155.72;5087679;28;20052;-71
2021/08/16 08:54:35;;;;;;;8.65;4.75;;;;;;;29.83;32.13;95150.53;5085872;28;20543;-71
2021/08/16 08:57:23;;;;;;;7.90;5.82;;;;;;;29.80;32.13;95145.91;5084080;28;20036;-72
2021/08/16 08:59:50;;;;;;;6.47;4.50;;;;;;;30.04;31.12;95150.28;5087168;28;20563;-73
2021/08/16 09:02:17;;;;;;;8.85;5.22;;;;;;;30.34;30.64;95141.00;5085915;28;20048;-73
2021/08/16 09:04:53;;;;;;;10.45;4.70;;;;;;;30.65;30.61;95146.28;5087826;28;20048;-71
2021/08/16 09:07:37;;;;;;;5.78;4.35;;;;;;;30.99;30.15;95141.25;5085118;28;20081;-72
2021/08/16 09:10:12;;;;;;;9.68;4.85;;;;;;;31.33;29.12;95136.13;5087713;28;20525;-73
2021/08/16 09:12:40;;;;;;;5.47;4.47;;;;;;;30.94;29.69;95136.16;5085819;28;20055;-72
2021/08/16 09:15:21;;;;;;;7.07;4.38;;;;;;;31.00;30.16;95142.78;5086165;28;20040;-73
2021/08/16 09:17:48;;;;;;;7.35;4.07;;;;;;;31.44;29.56;95141.69;5084770;28;20494;-73
2021/08/16 09:20:22;;;;;;;6.00;4.28;;;;;;;31.45;27.83;95133.22;5085819;28;20131;-73
2021/08/16 09:22:58;;;;;;;6.10;3.97;;;;;;;31.45;26.27;95124.38;5080153;28;20039;-72
2021/08/16 09:25:32;;;;;;;7.32;4.10;;;;;;;31.68;26.41;95124.44;5084410;28;20040;-73
2021/08/16 09:27:59;;;;;;;4.30;3.50;;;;;;;31.76;24.45;95123.38;5076317;28;20067;-72
2021/08/16 09:30:38;;;;;;;4.60;3.67;;;;;;;32.27;24.99;95121.47;5082898;28;20044;-72
2021/08/16 09:33:15;;;;;;;9.40;4.15;;;;;;;32.56;24.53;95118.03;5083179;28;21093;-72
2021/08/16 09:35:53;;;;;;;5.60;3.35;;;;;;;33.00;23.53;95113.19;5083210;28;20059;-72
2021/08/16 09:38:40;;;;;;;8.40;3.97;;;;;;;32.83;24.08;95115.31;5083388;28;20067;-72
2021/08/16 09:41:22;;;;;;;5.80;3.65;;;;;;;32.57;23.64;95114.22;5086528;28;20421;-72
2021/08/16 09:43:52;;;;;;;5.00;3.22;;;;;;;32.46;22.15;95107.88;5087014;28;20425;-72
2021/08/16 09:46:20;;;;;;;5.03;3.20;;;;;;;32.45;21.70;95110.94;5089356;28;20040;-72
2021/08/16 09:49:06;;;;;;;4.63;3.45;;;;;;;32.81;20.49;95101.44;5084945;28;20047;-71
2021/08/16 09:51:35;;;;;;;3.65;3.13;;;;;;;32.81;23.74;95100.63;5084902;28;20040;-72
2021/08/16 09:54:03;;;;;;;7.53;3.50;;;;;;;33.00;23.81;95097.00;5085483;28;20146;-72
2021/08/16 09:56:31;;;;;;;4.43;3.67;;;;;;;33.56;21.06;95093.31;5087419;28;20051;-72
2021/08/16 09:58:59;;;;;;;3.97;2.70;;;;;;;33.67;21.53;95102.34;5087271;27;20042;-72
2021/08/16 10:01:27;;;;;;;4.60;2.55;;;;;;;33.60;17.30;95102.25;5086531;28;20046;-73
2021/08/16 10:03:55;;;;;;;4.75;2.17;;;;;;;33.47;17.68;95087.47;5087054;28;20117;-73
2021/08/16 10:06:24;;;;;;;9.10;2.75;;;;;;;33.77;18.81;95094.69;5084777;28;20429;-72
2021/08/16 10:08:56;;;;;;;3.15;2.28;;;;;;;34.18;17.18;95083.81;5083972;28;20056;-72
2021/08/16 10:11:23;;;;;;;4.63;2.35;;;;;;;34.71;16.10;95094.13;5087705;28;20116;-73
2021/08/16 10:13:52;;;;;;;4.60;2.50;;;;;;;34.38;17.17;95090.47;5087257;28;20048;-73
2021/08/16 10:16:23;;;;;;;5.80;2.63;;;;;;;34.03;18.10;95086.41;5085891;28;20481;-73
2021/08/16 10:19:07;;;;;;;3.67;1.98;;;;;;;34.57;15.19;95085.94;5079236;28;20063;-72
2021/08/16 10:21:37;;;;;;;3.22;2.72;;;;;;;34.90;17.92;95084.13;5084920;28;20052;-73
2021/08/16 10:24:15;;;;;;;2.60;2.05;;;;;;;35.00;17.64;95081.47;5088108;28;20498;-74
2021/08/16 10:26:52;;;;;;;8.68;2.42;;;;;;;35.05;16.11;95072.22;5087128;28;20044;-75
2021/08/16 10:29:19;;;;;;;5.00;2.38;;;;;;;35.48;15.01;95072.28;5072848;28;20032;-73
2021/08/16 10:31:52;;;;;;;4.90;2.85;;;;;;;35.50;14.64;95072.69;5088967;28;20040;-73
2021/08/16 10:34:32;;;;;;;4.15;2.38;;;;;;;35.42;16.83;95063.03;5088564;28;20031;-73
2021/08/16 10:37:04;;;;;;;4.05;1.67;;;;;;;35.44;16.05;95071.53;5087190;28;20040;-74
2021/08/16 10:39:45;;;;;;;10.93;2.60;;;;;;;35.48;16.40;95066.88;5086397;28;20066;-74
2021/08/16 10:42:15;;;;;;;2.70;1.75;;;;;;;35.89;14.51;95063.81;5090274;28;20071;-73
2021/08/16 10:44:58;;;;;;;5.57;2.25;;;;;;;36.28;13.97;95057.53;5090306;28;20048;-74
2021/08/16 10:47:29;;;;;;;;;;;;;;;36.55;13.46;95054.34;5089516;28;20942;-73
2021/08/16 10:50:11;;;;;;;8.40;3.28;;;;;;;36.68;14.71;95058.22;5085607;28;19928;-73
2021/08/16 10:52:40;;;;;;;4.35;2.13;;;;;;;36.05;15.82;95052.56;5085592;28;20556;-72
2021/08/16 10:55:15;;;;;;;3.72;2.28;;;;;;;35.60;16.76;95047.53;5085531;28;20052;-73
2021/08/16 10:57:43;;;;;;;4.95;2.58;;;;;;;35.82;16.71;95047.56;5086664;28;20070;-73
2021/08/16 11:00:13;;;;;;;2.97;2.45;;;;;;;36.53;15.37;95035.00;5088989;28;20058;-73
2021/08/16 11:02:41;;;;;;;3.03;2.30;;;;;;;36.77;16.21;95038.00;5089005;28;20109;-72
2021/08/16 11:05:11;;;;;;;13.02;2.42;;;;;;;36.82;16.63;95034.88;5089875;28;20040;-72
2021/08/16 11:07:40;;;;;;;3.05;1.98;;;;;;;37.31;17.81;95038.47;5087609;28;20051;-72
2021/08/16 11:10:09;;;;;;;6.85;1.83;;;;;;;37.47;14.70;95030.59;5087694;28;20123;-73
2021/08/16 11:12:42;;;;;;;3.92;1.95;;;;;;;37.80;14.08;95024.91;5088614;28;20032;-72
2021/08/16 11:15:11;;;;;;;7.45;2.25;;;;;;;37.34;14.53;95021.38;5088532;28;20035;-73
2021/08/16 11:17:38;;;;;;;3.70;2.03;;;;;;;37.00;14.93;95018.50;5087400;28;20052;-73
2021/08/16 11:20:14;;;;;;;2.03;1.83;;;;;;;37.39;14.43;95017.47;5087118;28;20421;-72
2021/08/16 11:22:51;;;;;;;8.00;1.95;;;;;;;37.76;14.19;95014.06;5068458;28;20048;-73
2021/08/16 11:25:18;;;;;;;10.45;2.03;;;;;;;37.58;14.83;94991.69;5087581;28;20540;-73
2021/08/16 11:27:45;;;;;;;5.07;2.30;;;;;;;37.43;15.82;95002.66;5085650;28;20105;-73
2021/08/16 11:30:13;;;;;;;4.70;2.17;;;;;;;37.40;16.11;95008.13;5068209;28;20044;-73
2021/08/16 11:32:41;;;;;;;4.45;2.30;;;;;;;37.66;15.64;95004.06;5086052;28;20055;-72
2021/08/16 11:35:10;;;;;;;3.35;2.45;;;;;;;37.58;15.78;95002.56;5087542;28;20421;-72
2021/08/16 11:37:44;;;;;;;3.35;2.03;;;;;;;37.70;14.39;94996.66;5086418;28;21386;-72